Lord Nelson — GHJV — position and weather

sailwx.info

Track history (hours):
 
Tides and Currents Weather Stations Pressure Air Temp Water Temp Dewpoint Dewpoint Depression Visibility Wind Speed Wind Dir Waves Ship Positions

Lord Nelson (United Kingdom)

Ship's website: http://www.jst.org.uk/

Last reported at 2015-Jul-06 12:33 UTC. Time now 2015-Jul-06 13:30 UTC.
Position N 55°19' W 006°45'.

Length 54.7 m; beam 9 m; draft 4.1 m.

Type: Sailing vessel. MMSI: 232003690.

Date/timePositionNaut miles runAvg speedWind from/ knotsBaromVisibWave heightAir tempDewpointWater temp
2015-Jul-06 12:33N 55°19' W 006°45'4 4.3
2015-Jul-06 11:33N 55°17' W 006°38'2 2.4
2015-Jul-06 10:33N 55°19' W 006°39'3 2.6
2015-Jul-06 09:33N 55°17' W 006°42'3 2.7
2015-Jul-06 08:33N 55°18' W 006°37'7 7.1
2015-Jul-06 07:33N 55°18' W 006°25'8 8.1
2015-Jul-06 06:33N 55°13' W 006°13'0 0.2
2015-Jul-06 05:28N 55°13' W 006°13'0 0.0
2015-Jul-06 04:28N 55°13' W 006°13'0 0.0
2015-Jul-06 03:10N 55°13' W 006°13'0 0.0
2015-Jul-06 02:28N 55°13' W 006°13'0 0.0
2015-Jul-06 01:28N 55°13' W 006°13'0 0.0
2015-Jul-06 00:30N 55°13' W 006°13'0 0.0
2015-Jul-05 23:30N 55°13' W 006°13'0 0.0
2015-Jul-05 22:15N 55°13' W 006°13'2 2.9
2015-Jul-05 21:33N 55°14' W 006°10'2 2.5
2015-Jul-05 20:33N 55°14' W 006°05'5 5.3
2015-Jul-05 19:33N 55°11' W 005°58'8 8.4
2015-Jul-05 18:33N 55°04' W 005°49'8 7.6
2015-Jul-05 17:27N 54°57' W 005°41'6 6.6
2015-Jul-05 16:33N 54°51' W 005°39'6 5.8
2015-Jul-05 15:33N 54°45' W 005°39'5 4.7
2015-Jul-05 14:33N 54°41' W 005°40'5 5.0
2015-Jul-05 13:33N 54°41' W 005°49'5 5.1
2015-Jul-05 12:33N 54°37' W 005°55'  
2015-Jul-01 19:33N 54°37' W 005°55'7 6.6
2015-Jul-01 18:33N 54°41' W 005°47'5 4.7
2015-Jul-01 17:33N 54°41' W 005°39'0 0.0
2015-Jul-01 16:33N 54°41' W 005°40'0 0.0
2015-Jul-01 15:30N 54°41' W 005°40'0 0.0
2015-Jul-01 14:33N 54°41' W 005°40'0 0.0
2015-Jul-01 13:33N 54°41' W 005°40'0 0.0
2015-Jul-01 12:33N 54°41' W 005°40'0 0.0
2015-Jul-01 11:30N 54°41' W 005°40'0 0.4
2015-Jul-01 10:33N 54°41' W 005°39'3 3.0
2015-Jul-01 09:34N 54°43' W 005°35'3 2.9
2015-Jul-01 08:33N 54°45' W 005°33'3 2.9
2015-Jul-01 07:33N 54°48' W 005°31'4 3.6
2015-Jul-01 06:33N 54°51' W 005°30'3 3.4
2015-Jul-01 05:33N 54°55' W 005°27'3 3.4
2015-Jul-01 04:33N 54°57' W 005°23'4 3.5
2015-Jul-01 03:33N 54°60' W 005°19'4 4.0
2015-Jul-01 02:33N 55°03' W 005°15'11 3.6
2015-Jun-30 23:27N 55°11' W 005°02'10 4.3
2015-Jun-30 21:15N 55°20' W 004°55'26 0.9
2015-Jun-29 16:17N 55°17' W 005°40'5 7.0
2015-Jun-29 15:33N 55°16' W 005°49'6 6.1
2015-Jun-29 14:33N 55°22' W 005°52'6 6.3
2015-Jun-29 13:33N 55°29' W 005°51'6 5.9
2015-Jun-29 12:33N 55°34' W 005°51'6 5.9
2015-Jun-29 11:33N 55°40' W 005°51'6 6.1
2015-Jun-29 10:31N 55°47' W 005°51'5 4.0
2015-Jun-29 09:18N 55°51' W 005°53'2 0.1
2015-Jun-28 16:27N 55°53' W 005°51'10 0.4
2015-Jun-27 15:26N 55°44' W 005°57'4 4.3
2015-Jun-27 14:33N 55°40' W 005°57'7 7.2
2015-Jun-27 13:33N 55°33' W 005°56'8 8.1
2015-Jun-27 12:34N 55°25' W 005°53'9 8.8
2015-Jun-27 11:33N 55°17' W 005°48'11 0.6
2015-Jun-26 17:10N 55°25' W 005°36'0 0.1
2015-Jun-26 16:30N 55°25' W 005°36'6 5.6
2015-Jun-26 15:28N 55°26' W 005°26'  
Track history (hours):
 
Tides and Currents Weather Stations Pressure Air Temp Water Temp Dewpoint Dewpoint Depression Visibility Wind Speed Wind Dir Waves Ship Positions

Lord Nelson (United Kingdom)

Ship's website: http://www.jst.org.uk/

Last reported at 2015-Jul-06 12:33 UTC. Time now 2015-Jul-06 13:30 UTC.
Position N 55°19' W 006°45'.

Length 54.7 m; beam 9 m; draft 4.1 m.

Type: Sailing vessel. MMSI: 232003690.

Date/timePositionNaut miles runAvg speedWind from/ knotsBaromVisibWave heightAir tempDewpointWater temp
2015-Jul-06 12:33N 55°19' W 006°45'4 4.3
2015-Jul-06 11:33N 55°17' W 006°38'2 2.4
2015-Jul-06 10:33N 55°19' W 006°39'3 2.6
2015-Jul-06 09:33N 55°17' W 006°42'3 2.7
2015-Jul-06 08:33N 55°18' W 006°37'7 7.1
2015-Jul-06 07:33N 55°18' W 006°25'8 8.1
2015-Jul-06 06:33N 55°13' W 006°13'0 0.2
2015-Jul-06 05:28N 55°13' W 006°13'0 0.0
2015-Jul-06 04:28N 55°13' W 006°13'0 0.0
2015-Jul-06 03:10N 55°13' W 006°13'0 0.0
2015-Jul-06 02:28N 55°13' W 006°13'0 0.0
2015-Jul-06 01:28N 55°13' W 006°13'0 0.0
2015-Jul-06 00:30N 55°13' W 006°13'0 0.0
2015-Jul-05 23:30N 55°13' W 006°13'0 0.0
2015-Jul-05 22:15N 55°13' W 006°13'2 2.9
2015-Jul-05 21:33N 55°14' W 006°10'2 2.5
2015-Jul-05 20:33N 55°14' W 006°05'5 5.3
2015-Jul-05 19:33N 55°11' W 005°58'8 8.4
2015-Jul-05 18:33N 55°04' W 005°49'8 7.6
2015-Jul-05 17:27N 54°57' W 005°41'6 6.6
2015-Jul-05 16:33N 54°51' W 005°39'6 5.8
2015-Jul-05 15:33N 54°45' W 005°39'5 4.7
2015-Jul-05 14:33N 54°41' W 005°40'5 5.0
2015-Jul-05 13:33N 54°41' W 005°49'5 5.1
2015-Jul-05 12:33N 54°37' W 005°55'  
2015-Jul-01 19:33N 54°37' W 005°55'7 6.6
2015-Jul-01 18:33N 54°41' W 005°47'5 4.7
2015-Jul-01 17:33N 54°41' W 005°39'0 0.0
2015-Jul-01 16:33N 54°41' W 005°40'0 0.0
2015-Jul-01 15:30N 54°41' W 005°40'0 0.0
2015-Jul-01 14:33N 54°41' W 005°40'0 0.0
2015-Jul-01 13:33N 54°41' W 005°40'0 0.0
2015-Jul-01 12:33N 54°41' W 005°40'0 0.0
2015-Jul-01 11:30N 54°41' W 005°40'0 0.4
2015-Jul-01 10:33N 54°41' W 005°39'3 3.0
2015-Jul-01 09:34N 54°43' W 005°35'3 2.9
2015-Jul-01 08:33N 54°45' W 005°33'3 2.9
2015-Jul-01 07:33N 54°48' W 005°31'4 3.6
2015-Jul-01 06:33N 54°51' W 005°30'3 3.4
2015-Jul-01 05:33N 54°55' W 005°27'3 3.4
2015-Jul-01 04:33N 54°57' W 005°23'4 3.5
2015-Jul-01 03:33N 54°60' W 005°19'4 4.0
2015-Jul-01 02:33N 55°03' W 005°15'11 3.6
2015-Jun-30 23:27N 55°11' W 005°02'10 4.3
2015-Jun-30 21:15N 55°20' W 004°55'26 0.9
2015-Jun-29 16:17N 55°17' W 005°40'5 7.0
2015-Jun-29 15:33N 55°16' W 005°49'6 6.1
2015-Jun-29 14:33N 55°22' W 005°52'6 6.3
2015-Jun-29 13:33N 55°29' W 005°51'6 5.9
2015-Jun-29 12:33N 55°34' W 005°51'6 5.9
2015-Jun-29 11:33N 55°40' W 005°51'6 6.1
2015-Jun-29 10:31N 55°47' W 005°51'5 4.0
2015-Jun-29 09:18N 55°51' W 005°53'2 0.1
2015-Jun-28 16:27N 55°53' W 005°51'10 0.4
2015-Jun-27 15:26N 55°44' W 005°57'4 4.3
2015-Jun-27 14:33N 55°40' W 005°57'7 7.2
2015-Jun-27 13:33N 55°33' W 005°56'8 8.1
2015-Jun-27 12:34N 55°25' W 005°53'9 8.8
2015-Jun-27 11:33N 55°17' W 005°48'11 0.6
2015-Jun-26 17:10N 55°25' W 005°36'0 0.1
2015-Jun-26 16:30N 55°25' W 005°36'6 5.6
2015-Jun-26 15:28N 55°26' W 005°26'  

Dump ship's entire track history